Language: 


Des rapports , des résumés tant et plus, au choix de chacun....


Données Historiques de Météogheer
Journalier Rapport pour Mars 10, 2017 Unitée:  Les deux    Impériale   Métrique
Suivant Jour »
Journalier Hebdomadaire Mensuel Annuel Sur mesure
  Max: Min: Moyenne:
Température: 61.5 °F /  16.4 °C 32 °F /  0.0 °C 47.3 °F /  8.5 °C
Point de rosée: 49.3 °F /  9.6 °C 35.6 °F /  2.0 °C 40.1 °F /  4.5 °C
Humidité: 98% 0% 79%
Vent: 9.6mph /  15.4km/h - 2.5mph /  4km/h
Rafales: 12.8mph /  20.6km/h - -
Vent- - SE
Pression: 30.4 in /  1028.0 hPa 0 in /  0.0 hPa -
Pluie: 0 in /  0.0 mm    
Historical Graphs
 
 
Données tabulaires pour Mars 10, 2017
Heure Température Point de rosée Pression Vent Vent Rafales Humidité Pluie Taux (Horaire) Conditions
00:01 42.3 °F /  5.7 °C 38.8 °F /  3.8 °C 30.3in /  1026.0hPa North 3.1mph /  5.0km/h 3.8mph /  6.1km/h 88% 0in /  0.0mm
00:06 42.3 °F /  5.7 °C 38.8 °F /  3.8 °C 30.3in /  1026.0hPa Calm   3.8mph /  6.1km/h 88% 0in /  0.0mm
00:11 42.1 °F /  5.6 °C 39 °F /  3.9 °C 30.3in /  1027.0hPa Calm   3.8mph /  6.1km/h 89% 0in /  0.0mm
00:16 41.7 °F /  5.4 °C 38.5 °F /  3.6 °C 30.3in /  1027.0hPa Calm     88% 0in /  0.0mm
00:21 41.4 °F /  5.2 °C 38.1 °F /  3.4 °C 30.3in /  1027.0hPa Calm     88% 0in /  0.0mm
00:26 41.2 °F /  5.1 °C 37.9 °F /  3.3 °C 30.3in /  1027.0hPa Calm     88% 0in /  0.0mm
00:31 40.6 °F /  4.8 °C 37.4 °F /  3.0 °C 30.3in /  1027.0hPa Calm     88% 0in /  0.0mm
00:36 40.5 °F /  4.7 °C 37.2 °F /  2.9 °C 30.3in /  1027.0hPa NNE 2mph /  3.2km/h 2mph /  3.2km/h 88% 0in /  0.0mm
00:41 40.5 °F /  4.7 °C 37.6 °F /  3.1 °C 30.3in /  1027.0hPa Calm   2.9mph /  4.7km/h 89% 0in /  0.0mm
00:46 40.3 °F /  4.6 °C 37.6 °F /  3.1 °C 30.3in /  1027.0hPa Calm   2.9mph /  4.7km/h 90% 0in /  0.0mm
00:51 39.9 °F /  4.4 °C 37.2 °F /  2.9 °C 30.3in /  1027.0hPa Calm     90% 0in /  0.0mm
00:56 39.7 °F /  4.3 °C 37 °F /  2.8 °C 30.3in /  1027.0hPa Calm     90% 0in /  0.0mm
01:01 39.4 °F /  4.1 °C 36.7 °F /  2.6 °C 30.3in /  1027.0hPa NE 0.9mph /  1.4km/h 0.9mph /  1.4km/h 90% 0in /  0.0mm
01:06 39.2 °F /  4.0 °C 36.5 °F /  2.5 °C 30.3in /  1027.0hPa NNE 2mph /  3.2km/h 2.7mph /  4.3km/h 90% 0in /  0.0mm
01:11 39.6 °F /  4.2 °C 37.2 °F /  2.9 °C 30.3in /  1027.0hPa Calm   3.1mph /  5.0km/h 91% 0in /  0.0mm
01:16 39.6 °F /  4.2 °C 37.6 °F /  3.1 °C 30.3in /  1027.0hPa Calm   3.1mph /  5.0km/h 92% 0in /  0.0mm
01:21 39.6 °F /  4.2 °C 37.8 °F /  3.2 °C 30.3in /  1027.0hPa NNW 1.3mph /  2.1km/h 3.1mph /  5.0km/h 93% 0in /  0.0mm
01:26 39.4 °F /  4.1 °C 37.6 °F /  3.1 °C 30.3in /  1027.0hPa Calm   3.1mph /  5.0km/h 93% 0in /  0.0mm
01:31 39 °F /  3.9 °C 36.9 °F /  2.7 °C 30.3in /  1027.0hPa Calm   0.9mph /  1.4km/h 92% 0in /  0.0mm
01:36 38.7 °F /  3.7 °C 36.7 °F /  2.6 °C 30.3in /  1027.0hPa Calm   0.9mph /  1.4km/h 92% 0in /  0.0mm
01:41 38.5 °F /  3.6 °C 36.1 °F /  2.3 °C 30.3in /  1027.0hPa Calm     92% 0in /  0.0mm
01:46 38.1 °F /  3.4 °C 36.1 °F /  2.3 °C 30.3in /  1027.0hPa WNW 1.1mph /  1.8km/h 1.3mph /  2.1km/h 92% 0in /  0.0mm
01:51 37.9 °F /  3.3 °C 36 °F /  2.2 °C 30.3in /  1027.0hPa Calm   1.6mph /  2.6km/h 92% 0in /  0.0mm
01:56 37.8 °F /  3.2 °C 36 °F /  2.2 °C 30.3in /  1027.0hPa Calm   1.6mph /  2.6km/h 93% 0in /  0.0mm
02:02 32 °F /  0.0 °C 35.6 °F /  2.0 °C 0in /  0.0hPa Calm     0% 0in /  0.0mm
02:07 37.8 °F /  3.2 °C 36.1 °F /  2.3 °C 30.3in /  1027.0hPa Calm   2.5mph /  4.0km/h 94% 0in /  0.0mm
02:12 37.6 °F /  3.1 °C 36.1 °F /  2.3 °C 30.3in /  1027.0hPa NNE 2mph /  3.2km/h 2.5mph /  4.0km/h 94% 0in /  0.0mm
02:17 37.6 °F /  3.1 °C 36 °F /  2.2 °C 30.3in /  1027.0hPa Calm   2mph /  3.2km/h 94% 0in /  0.0mm
02:22 37.2 °F /  2.9 °C 35.8 °F /  2.1 °C 30.3in /  1027.0hPa NE 1.1mph /  1.8km/h 2mph /  3.2km/h 94% 0in /  0.0mm
02:27 37.6 °F /  3.1 °C 36.1 °F /  2.3 °C 30.3in /  1027.0hPa NNE 3.1mph /  5.0km/h 3.8mph /  6.1km/h 95% 0in /  0.0mm
02:32 37.8 °F /  3.2 °C 36.5 °F /  2.5 °C 30.3in /  1027.0hPa NNE 2.9mph /  4.7km/h 3.8mph /  6.1km/h 95% 0in /  0.0mm
02:37 37.8 °F /  3.2 °C 36.9 °F /  2.7 °C 30.3in /  1027.0hPa Calm   3.6mph /  5.8km/h 96% 0in /  0.0mm
02:42 37.6 °F /  3.1 °C 36.7 °F /  2.6 °C 30.4in /  1028.0hPa Calm   2.9mph /  4.7km/h 96% 0in /  0.0mm
02:47 37.6 °F /  3.1 °C 36.7 °F /  2.6 °C 30.4in /  1028.0hPa Calm     96% 0in /  0.0mm
02:52 37.6 °F /  3.1 °C 36.7 °F /  2.6 °C 30.4in /  1028.0hPa Calm   2.5mph /  4.0km/h 96% 0in /  0.0mm
02:57 37.6 °F /  3.1 °C 36.7 °F /  2.6 °C 30.3in /  1026.0hPa Calm   2.5mph /  4.0km/h 96% 0in /  0.0mm
03:02 37.6 °F /  3.1 °C 36.3 °F /  2.4 °C 30.3in /  1026.0hPa Calm     96% 0in /  0.0mm
03:07 37.6 °F /  3.1 °C 36.3 °F /  2.4 °C 30.3in /  1026.0hPa Calm     96% 0in /  0.0mm
03:12 37.6 °F /  3.1 °C 36.3 °F /  2.4 °C 30.3in /  1027.0hPa NE 2.9mph /  4.7km/h 2.9mph /  4.7km/h 96% 0in /  0.0mm
03:17 37.8 °F /  3.2 °C 37 °F /  2.8 °C 30.3in /  1027.0hPa NNE 3.6mph /  5.8km/h 4.3mph /  6.9km/h 97% 0in /  0.0mm
03:22 37.8 °F /  3.2 °C 37 °F /  2.8 °C 30.3in /  1027.0hPa NE 2.7mph /  4.3km/h 4.7mph /  7.6km/h 97% 0in /  0.0mm
03:27 37.8 °F /  3.2 °C 37 °F /  2.8 °C 30.3in /  1027.0hPa NNE 2.7mph /  4.3km/h 4.7mph /  7.6km/h 97% 0in /  0.0mm
03:32 37.6 °F /  3.1 °C 36.9 °F /  2.7 °C 30.3in /  1027.0hPa Calm   4mph /  6.4km/h 97% 0in /  0.0mm
03:37 37.6 °F /  3.1 °C 36.9 °F /  2.7 °C 30.3in /  1027.0hPa Calm   3.6mph /  5.8km/h 97% 0in /  0.0mm
03:42 37.8 °F /  3.2 °C 37 °F /  2.8 °C 30.3in /  1027.0hPa North 3.8mph /  6.1km/h 4.3mph /  6.9km/h 97% 0in /  0.0mm
03:47 37.8 °F /  3.2 °C 37 °F /  2.8 °C 30.3in /  1027.0hPa NE 2mph /  3.2km/h 4.3mph /  6.9km/h 97% 0in /  0.0mm
03:52 37.6 °F /  3.1 °C 36.9 °F /  2.7 °C 30.3in /  1027.0hPa Calm   3.6mph /  5.8km/h 97% 0in /  0.0mm
03:57 37.6 °F /  3.1 °C 36.9 °F /  2.7 °C 30.4in /  1028.0hPa Calm   2mph /  3.2km/h 97% 0in /  0.0mm
04:02 37.6 °F /  3.1 °C 36.9 °F /  2.7 °C 30.4in /  1028.0hPa Calm   2.5mph /  4.0km/h 97% 0in /  0.0mm
04:07 37.6 °F /  3.1 °C 36.9 °F /  2.7 °C 30.4in /  1028.0hPa Calm   2.5mph /  4.0km/h 97% 0in /  0.0mm
04:12 37.2 °F /  2.9 °C 36.5 °F /  2.5 °C 30.3in /  1027.0hPa Calm     97% 0in /  0.0mm
04:17 37.2 °F /  2.9 °C 36.5 °F /  2.5 °C 30.3in /  1027.0hPa Calm     97% 0in /  0.0mm
04:22 37 °F /  2.8 °C 36.3 °F /  2.4 °C 30.3in /  1027.0hPa NNE 2.2mph /  3.5km/h 2.7mph /  4.3km/h 97% 0in /  0.0mm
04:27 37 °F /  2.8 °C 36.7 °F /  2.6 °C 30.3in /  1027.0hPa Calm   2.7mph /  4.3km/h 98% 0in /  0.0mm
04:32 36.9 °F /  2.7 °C 36.3 °F /  2.4 °C 30.3in /  1027.0hPa Calm   2.7mph /  4.3km/h 98% 0in /  0.0mm
04:37 37 °F /  2.8 °C 36.7 °F /  2.6 °C 30.3in /  1027.0hPa Calm     98% 0in /  0.0mm
04:42 37.2 °F /  2.9 °C 36.9 °F /  2.7 °C 30.3in /  1027.0hPa Calm   3.4mph /  5.5km/h 98% 0in /  0.0mm
04:47 37.6 °F /  3.1 °C 37 °F /  2.8 °C 30.3in /  1027.0hPa NE 2.9mph /  4.7km/h 3.6mph /  5.8km/h 98% 0in /  0.0mm
04:52 37.6 °F /  3.1 °C 37 °F /  2.8 °C 30.3in /  1027.0hPa NE 2.5mph /  4.0km/h 3.6mph /  5.8km/h 98% 0in /  0.0mm
04:57 37.2 °F /  2.9 °C 36.9 °F /  2.7 °C 30.3in /  1027.0hPa NE 2.7mph /  4.3km/h 3.1mph /  5.0km/h 98% 0in /  0.0mm
05:02 37.2 °F /  2.9 °C 36.9 °F /  2.7 °C 30.3in /  1027.0hPa NE 3.4mph /  5.5km/h 3.4mph /  5.5km/h 98% 0in /  0.0mm
05:07 37.2 °F /  2.9 °C 36.9 °F /  2.7 °C 30.3in /  1027.0hPa Calm   3.4mph /  5.5km/h 98% 0in /  0.0mm
05:12 37 °F /  2.8 °C 36.7 °F /  2.6 °C 30.3in /  1027.0hPa Calm   3.1mph /  5.0km/h 98% 0in /  0.0mm
05:17 36.9 °F /  2.7 °C 36.3 °F /  2.4 °C 30.3in /  1027.0hPa NE 1.1mph /  1.8km/h 2mph /  3.2km/h 98% 0in /  0.0mm
05:22 37 °F /  2.8 °C 36.7 °F /  2.6 °C 30.3in /  1027.0hPa NE 2mph /  3.2km/h 2.2mph /  3.5km/h 98% 0in /  0.0mm
05:27 37.2 °F /  2.9 °C 36.9 °F /  2.7 °C 30.3in /  1027.0hPa Calm   2.9mph /  4.7km/h 98% 0in /  0.0mm
05:32 37.6 °F /  3.1 °C 37 °F /  2.8 °C 30.3in /  1027.0hPa NE 3.8mph /  6.1km/h 3.8mph /  6.1km/h 98% 0in /  0.0mm
05:37 37.6 °F /  3.1 °C 37 °F /  2.8 °C 30.3in /  1027.0hPa ENE 2.7mph /  4.3km/h 3.8mph /  6.1km/h 98% 0in /  0.0mm
05:42 37.8 °F /  3.2 °C 37.2 °F /  2.9 °C 30.3in /  1027.0hPa NE 2.2mph /  3.5km/h 3.8mph /  6.1km/h 98% 0in /  0.0mm
05:47 37.8 °F /  3.2 °C 37.2 °F /  2.9 °C 30.3in /  1027.0hPa Calm   3.4mph /  5.5km/h 98% 0in /  0.0mm
05:52 37.8 °F /  3.2 °C 37.2 °F /  2.9 °C 30.3in /  1027.0hPa NE 2.7mph /  4.3km/h 2.9mph /  4.7km/h 98% 0in /  0.0mm
05:57 37.9 °F /  3.3 °C 37.6 °F /  3.1 °C 30.3in /  1027.0hPa ENE 2.5mph /  4.0km/h 2.9mph /  4.7km/h 98% 0in /  0.0mm
06:02 38.1 °F /  3.4 °C 37.8 °F /  3.2 °C 30.3in /  1027.0hPa NE 2.9mph /  4.7km/h 3.6mph /  5.8km/h 98% 0in /  0.0mm
06:07 38.5 °F /  3.6 °C 37.8 °F /  3.2 °C 30.3in /  1027.0hPa ENE 3.1mph /  5.0km/h 3.6mph /  5.8km/h 98% 0in /  0.0mm
06:12 38.5 °F /  3.6 °C 37.9 °F /  3.3 °C 30.3in /  1027.0hPa ENE 2.9mph /  4.7km/h 3.6mph /  5.8km/h 98% 0in /  0.0mm
06:17 38.5 °F /  3.6 °C 37.9 °F /  3.3 °C 30.3in /  1027.0hPa ENE 2mph /  3.2km/h 3.4mph /  5.5km/h 98% 0in /  0.0mm
06:22 38.5 °F /  3.6 °C 37.9 °F /  3.3 °C 30.3in /  1027.0hPa NE 2.2mph /  3.5km/h 3.4mph /  5.5km/h 98% 0in /  0.0mm
06:27 38.5 °F /  3.6 °C 37.9 °F /  3.3 °C 30.3in /  1027.0hPa Calm   2.7mph /  4.3km/h 98% 0in /  0.0mm
06:32 38.5 °F /  3.6 °C 37.8 °F /  3.2 °C 30.3in /  1027.0hPa Calm   2.2mph /  3.5km/h 98% 0in /  0.0mm
06:37 38.5 °F /  3.6 °C 37.8 °F /  3.2 °C 30.3in /  1027.0hPa Calm     98% 0in /  0.0mm
06:42 38.5 °F /  3.6 °C 37.8 °F /  3.2 °C 30.3in /  1027.0hPa ENE 1.3mph /  2.1km/h 2.5mph /  4.0km/h 98% 0in /  0.0mm
06:47 38.5 °F /  3.6 °C 37.8 °F /  3.2 °C 30.3in /  1027.0hPa ENE 2mph /  3.2km/h 2.7mph /  4.3km/h 98% 0in /  0.0mm
06:52 38.5 °F /  3.6 °C 37.9 °F /  3.3 °C 30.3in /  1027.0hPa Calm   2.7mph /  4.3km/h 98% 0in /  0.0mm
06:57 38.5 °F /  3.6 °C 37.9 °F /  3.3 °C 30.3in /  1027.0hPa ENE 2mph /  3.2km/h 2.5mph /  4.0km/h 98% 0in /  0.0mm
07:02 38.5 °F /  3.6 °C 37.9 °F /  3.3 °C 30.3in /  1027.0hPa ENE 0.9mph /  1.4km/h 2.7mph /  4.3km/h 98% 0in /  0.0mm
07:07 38.7 °F /  3.7 °C 38.1 °F /  3.4 °C 30.3in /  1027.0hPa Calm   2.7mph /  4.3km/h 98% 0in /  0.0mm
07:12 38.7 °F /  3.7 °C 38.1 °F /  3.4 °C 30.3in /  1027.0hPa ENE 2.7mph /  4.3km/h 2.9mph /  4.7km/h 98% 0in /  0.0mm
07:17 38.8 °F /  3.8 °C 38.5 °F /  3.6 °C 30.3in /  1027.0hPa Calm   2.9mph /  4.7km/h 98% 0in /  0.0mm
07:22 39 °F /  3.9 °C 38.5 °F /  3.6 °C 30.3in /  1027.0hPa ENE 1.6mph /  2.6km/h 2.7mph /  4.3km/h 98% 0in /  0.0mm
07:27 39.2 °F /  4.0 °C 38.7 °F /  3.7 °C 30.3in /  1027.0hPa East 2.2mph /  3.5km/h 3.1mph /  5.0km/h 98% 0in /  0.0mm
07:32 39.2 °F /  4.0 °C 38.7 °F /  3.7 °C 30.3in /  1027.0hPa East 2.5mph /  4.0km/h 3.1mph /  5.0km/h 98% 0in /  0.0mm
07:37 39.4 °F /  4.1 °C 38.8 °F /  3.8 °C 30.3in /  1026.0hPa ENE 2mph /  3.2km/h 3.1mph /  5.0km/h 98% 0in /  0.0mm
07:42 39.6 °F /  4.2 °C 39 °F /  3.9 °C 30.3in /  1026.0hPa ESE 2mph /  3.2km/h 3.6mph /  5.8km/h 98% 0in /  0.0mm
07:47 39.7 °F /  4.3 °C 39.2 °F /  4.0 °C 30.3in /  1026.0hPa East 2.5mph /  4.0km/h 3.6mph /  5.8km/h 98% 0in /  0.0mm
07:52 39.9 °F /  4.4 °C 39.4 °F /  4.1 °C 30.3in /  1026.0hPa Calm   3.4mph /  5.5km/h 98% 0in /  0.0mm
07:57 40.1 °F /  4.5 °C 39.6 °F /  4.2 °C 30.3in /  1026.0hPa East 2.5mph /  4.0km/h 3.1mph /  5.0km/h 98% 0in /  0.0mm
08:02 40.3 °F /  4.6 °C 39.7 °F /  4.3 °C 30.3in /  1026.0hPa East 4.3mph /  6.9km/h 4.3mph /  6.9km/h 98% 0in /  0.0mm
08:07 40.5 °F /  4.7 °C 39.9 °F /  4.4 °C 30.3in /  1027.0hPa ENE 4.3mph /  6.9km/h 4.5mph /  7.2km/h 98% 0in /  0.0mm
08:12 40.5 °F /  4.7 °C 39.9 °F /  4.4 °C 30.3in /  1027.0hPa East 3.1mph /  5.0km/h 4.5mph /  7.2km/h 98% 0in /  0.0mm
08:17 40.6 °F /  4.8 °C 40.1 °F /  4.5 °C 30.3in /  1027.0hPa ENE 4.9mph /  7.9km/h 6.3mph /  10.1km/h 98% 0in /  0.0mm
08:22 40.8 °F /  4.9 °C 40.3 °F /  4.6 °C 30.3in /  1027.0hPa ESE 3.1mph /  5.0km/h 6.3mph /  10.1km/h 98% 0in /  0.0mm
08:27 41 °F /  5.0 °C 40.5 °F /  4.7 °C 30.3in /  1027.0hPa East 3.4mph /  5.5km/h 5.4mph /  8.7km/h 98% 0in /  0.0mm
08:32 41.4 °F /  5.2 °C 40.8 °F /  4.9 °C 30.3in /  1027.0hPa ESE 3.8mph /  6.1km/h 6.3mph /  10.1km/h 98% 0in /  0.0mm
08:37 41.5 °F /  5.3 °C 41 °F /  5.0 °C 30.3in /  1027.0hPa ESE 4.7mph /  7.6km/h 6.5mph /  10.5km/h 98% 0in /  0.0mm
08:42 41.5 °F /  5.3 °C 41 °F /  5.0 °C 30.3in /  1027.0hPa SSE 6.3mph /  10.1km/h 6.7mph /  10.8km/h 98% 0in /  0.0mm
08:47 41.7 °F /  5.4 °C 41.2 °F /  5.1 °C 30.3in /  1027.0hPa ESE 4.9mph /  7.9km/h 6.7mph /  10.8km/h 98% 0in /  0.0mm
08:52 41.9 °F /  5.5 °C 41.4 °F /  5.2 °C 30.3in /  1027.0hPa ESE 4.9mph /  7.9km/h 8.5mph /  13.7km/h 98% 0in /  0.0mm
08:57 41.9 °F /  5.5 °C 41.4 °F /  5.2 °C 30.3in /  1027.0hPa ESE 2.7mph /  4.3km/h 8.5mph /  13.7km/h 98% 0in /  0.0mm
09:02 42.1 °F /  5.6 °C 41.5 °F /  5.3 °C 30.3in /  1027.0hPa ESE 7.8mph /  12.6km/h 7.8mph /  12.6km/h 98% 0in /  0.0mm
09:07 42.3 °F /  5.7 °C 41.7 °F /  5.4 °C 30.3in /  1027.0hPa East 5.4mph /  8.7km/h 7.8mph /  12.6km/h 98% 0in /  0.0mm
09:12 42.4 °F /  5.8 °C 41.9 °F /  5.5 °C 30.3in /  1027.0hPa ESE 4.9mph /  7.9km/h 7.8mph /  12.6km/h 98% 0in /  0.0mm
09:17 42.6 °F /  5.9 °C 42.1 °F /  5.6 °C 30.3in /  1027.0hPa ESE 3.8mph /  6.1km/h 5.8mph /  9.3km/h 98% 0in /  0.0mm
09:22 43 °F /  6.1 °C 42.4 °F /  5.8 °C 30.4in /  1028.0hPa SE 5.6mph /  9.0km/h 5.6mph /  9.0km/h 98% 0in /  0.0mm
09:27 43.3 °F /  6.3 °C 42.8 °F /  6.0 °C 30.4in /  1028.0hPa ESE 5.4mph /  8.7km/h 8.7mph /  14.0km/h 98% 0in /  0.0mm
09:32 43.5 °F /  6.4 °C 43 °F /  6.1 °C 30.4in /  1028.0hPa ESE 6.5mph /  10.5km/h 8.7mph /  14.0km/h 98% 0in /  0.0mm
09:37 43.9 °F /  6.6 °C 43.3 °F /  6.3 °C 30.3in /  1027.0hPa SSE 4.3mph /  6.9km/h 8.7mph /  14.0km/h 98% 0in /  0.0mm
09:42 43.9 °F /  6.6 °C 43.3 °F /  6.3 °C 30.3in /  1027.0hPa SE 4.9mph /  7.9km/h 8.1mph /  13.0km/h 98% 0in /  0.0mm
09:47 44.2 °F /  6.8 °C 43.5 °F /  6.4 °C 30.3in /  1027.0hPa SE 4.9mph /  7.9km/h 8.1mph /  13.0km/h 97% 0in /  0.0mm
09:52 44.8 °F /  7.1 °C 43.9 °F /  6.6 °C 30.4in /  1028.0hPa SSE 5.8mph /  9.3km/h 6.5mph /  10.5km/h 97% 0in /  0.0mm
09:57 45.1 °F /  7.3 °C 44.2 °F /  6.8 °C 30.4in /  1028.0hPa ESE 4.9mph /  7.9km/h 7.8mph /  12.6km/h 97% 0in /  0.0mm
10:02 45.7 °F /  7.6 °C 44.8 °F /  7.1 °C 30.4in /  1028.0hPa SE 6.5mph /  10.5km/h 7.8mph /  12.6km/h 97% 0in /  0.0mm
10:07 46.6 °F /  8.1 °C 45.3 °F /  7.4 °C 30.4in /  1028.0hPa SE 3.1mph /  5.0km/h 6.7mph /  10.8km/h 96% 0in /  0.0mm
10:12 46.2 °F /  7.9 °C 45.1 °F /  7.3 °C 30.4in /  1028.0hPa ESE 2.7mph /  4.3km/h 7.2mph /  11.6km/h 96% 0in /  0.0mm
10:17 46.6 °F /  8.1 °C 45.1 °F /  7.3 °C 30.4in /  1028.0hPa SSE 4.9mph /  7.9km/h 7.2mph /  11.6km/h 95% 0in /  0.0mm
10:22 46.9 °F /  8.3 °C 45.7 °F /  7.6 °C 30.4in /  1028.0hPa SSE 3.6mph /  5.8km/h 6.5mph /  10.5km/h 95% 0in /  0.0mm
10:27 47.5 °F /  8.6 °C 46.4 °F /  8.0 °C 30.4in /  1028.0hPa SSE 3.8mph /  6.1km/h 6.5mph /  10.5km/h 96% 0in /  0.0mm
10:32 48.4 °F /  9.1 °C 46.9 °F /  8.3 °C 30.4in /  1028.0hPa South 2.7mph /  4.3km/h 5.6mph /  9.0km/h 95% 0in /  0.0mm
10:37 48.7 °F /  9.3 °C 47.5 °F /  8.6 °C 30.3in /  1027.0hPa SE 6mph /  9.7km/h 7.4mph /  11.9km/h 95% 0in /  0.0mm
10:42 49.1 °F /  9.5 °C 47.5 °F /  8.6 °C 30.3in /  1027.0hPa SSE 3.8mph /  6.1km/h 7.4mph /  11.9km/h 94% 0in /  0.0mm
10:47 50 °F /  10.0 °C 48.4 °F /  9.1 °C 30.3in /  1027.0hPa SSE 3.1mph /  5.0km/h 6.5mph /  10.5km/h 94% 0in /  0.0mm
10:52 51.3 °F /  10.7 °C 49.3 °F /  9.6 °C 30.3in /  1027.0hPa ESE 3.4mph /  5.5km/h 6.5mph /  10.5km/h 93% 0in /  0.0mm
10:57 52.2 °F /  11.2 °C 49.3 °F /  9.6 °C 30.3in /  1027.0hPa SSE 2.9mph /  4.7km/h 7.6mph /  12.2km/h 90% 0in /  0.0mm
11:02 51.4 °F /  10.8 °C 46.9 °F /  8.3 °C 30.3in /  1027.0hPa SSE 3.6mph /  5.8km/h 7.6mph /  12.2km/h 85% 0in /  0.0mm
11:07 52.2 °F /  11.2 °C 47.1 °F /  8.4 °C 30.4in /  1028.0hPa ESE 2.2mph /  3.5km/h 5.6mph /  9.0km/h 83% 0in /  0.0mm
11:12 53.1 °F /  11.7 °C 48.4 °F /  9.1 °C 30.4in /  1028.0hPa SE 2.5mph /  4.0km/h 5.6mph /  9.0km/h 84% 0in /  0.0mm
11:17 53.4 °F /  11.9 °C 49.1 °F /  9.5 °C 30.4in /  1028.0hPa ESE 4mph /  6.4km/h 5.4mph /  8.7km/h 85% 0in /  0.0mm
11:22 53.2 °F /  11.8 °C 46.9 °F /  8.3 °C 30.3in /  1027.0hPa ESE 6.3mph /  10.1km/h 7.6mph /  12.2km/h 79% 0in /  0.0mm
11:27 53.2 °F /  11.8 °C 46.8 °F /  8.2 °C 30.3in /  1027.0hPa East 4.9mph /  7.9km/h 8.5mph /  13.7km/h 79% 0in /  0.0mm
11:32 53.1 °F /  11.7 °C 45.3 °F /  7.4 °C 30.3in /  1027.0hPa SE 4.7mph /  7.6km/h 8.5mph /  13.7km/h 75% 0in /  0.0mm
11:37 53.2 °F /  11.8 °C 45 °F /  7.2 °C 30.3in /  1027.0hPa ESE 7.2mph /  11.6km/h 7.8mph /  12.6km/h 73% 0in /  0.0mm
11:42 54 °F /  12.2 °C 46.6 °F /  8.1 °C 30.3in /  1027.0hPa ESE 6mph /  9.7km/h 7.8mph /  12.6km/h 76% 0in /  0.0mm
11:47 53.8 °F /  12.1 °C 44.1 °F /  6.7 °C 30.3in /  1027.0hPa SE 3.8mph /  6.1km/h 7.6mph /  12.2km/h 70% 0in /  0.0mm
11:52 54.1 °F /  12.3 °C 45.9 °F /  7.7 °C 30.3in /  1026.0hPa SE 5.6mph /  9.0km/h 7.8mph /  12.6km/h 73% 0in /  0.0mm
11:57 54.9 °F /  12.7 °C 45.7 °F /  7.6 °C 30.3in /  1026.0hPa SE 5.8mph /  9.3km/h 7.8mph /  12.6km/h 71% 0in /  0.0mm
12:02 55.2 °F /  12.9 °C 45.7 °F /  7.6 °C 30.3in /  1026.0hPa ESE 4.3mph /  6.9km/h 7.2mph /  11.6km/h 70% 0in /  0.0mm
12:07 55.8 °F /  13.2 °C 46.6 °F /  8.1 °C 30.3in /  1027.0hPa SE 5.8mph /  9.3km/h 7.4mph /  11.9km/h 71% 0in /  0.0mm
12:12 55.9 °F /  13.3 °C 45.1 °F /  7.3 °C 30.3in /  1027.0hPa SSE 5.6mph /  9.0km/h 7.4mph /  11.9km/h 67% 0in /  0.0mm
12:17 56.3 °F /  13.5 °C 45.9 °F /  7.7 °C 30.3in /  1027.0hPa SE 4.3mph /  6.9km/h 6.3mph /  10.1km/h 68% 0in /  0.0mm
12:22 56.7 °F /  13.7 °C 45.9 °F /  7.7 °C 30.3in /  1027.0hPa SSE 5.8mph /  9.3km/h 6.3mph /  10.1km/h 67% 0in /  0.0mm
12:27 56.8 °F /  13.8 °C 44.4 °F /  6.9 °C 30.3in /  1027.0hPa South 5.8mph /  9.3km/h 8.5mph /  13.7km/h 63% 0in /  0.0mm
12:32 57.4 °F /  14.1 °C 45.3 °F /  7.4 °C 30.3in /  1027.0hPa SE 4.5mph /  7.2km/h 8.9mph /  14.3km/h 64% 0in /  0.0mm
12:37 57.4 °F /  14.1 °C 43.2 °F /  6.2 °C 30.3in /  1027.0hPa SSW 4.9mph /  7.9km/h 8.9mph /  14.3km/h 59% 0in /  0.0mm
12:42 57.9 °F /  14.4 °C 41.9 °F /  5.5 °C 30.3in /  1027.0hPa SSE 7.6mph /  12.2km/h 7.8mph /  12.6km/h 55% 0in /  0.0mm
12:47 58.3 °F /  14.6 °C 41.7 °F /  5.4 °C 30.3in /  1027.0hPa South 9.6mph /  15.4km/h 9.6mph /  15.4km/h 54% 0in /  0.0mm
12:52 58.5 °F /  14.7 °C 40.5 °F /  4.7 °C 30.3in /  1027.0hPa SSE 3.4mph /  5.5km/h 9.6mph /  15.4km/h 51% 0in /  0.0mm
12:58 58.6 °F /  14.8 °C 39.9 °F /  4.4 °C 30.3in /  1027.0hPa South 4mph /  6.4km/h 8.5mph /  13.7km/h 50% 0in /  0.0mm
13:03 58.8 °F /  14.9 °C 39.7 °F /  4.3 °C 30.3in /  1027.0hPa South 3.1mph /  5.0km/h 8.1mph /  13.0km/h 49% 0in /  0.0mm
13:08 58.5 °F /  14.7 °C 38.8 °F /  3.8 °C 30.3in /  1026.0hPa South 6.5mph /  10.5km/h 12.8mph /  20.6km/h 48% 0in /  0.0mm
13:13 58.6 °F /  14.8 °C 39 °F /  3.9 °C 30.3in /  1026.0hPa SSE 7.6mph /  12.2km/h 12.8mph /  20.6km/h 48% 0in /  0.0mm
13:18 58.8 °F /  14.9 °C 39.2 °F /  4.0 °C 30.3in /  1026.0hPa South 5.6mph /  9.0km/h 7.8mph /  12.6km/h 48% 0in /  0.0mm
13:23 59 °F /  15.0 °C 39.4 °F /  4.1 °C 30.3in /  1026.0hPa SSE 5.6mph /  9.0km/h 7.8mph /  12.6km/h 48% 0in /  0.0mm
13:28 59.2 °F /  15.1 °C 39.9 °F /  4.4 °C 30.3in /  1026.0hPa SSW 5.6mph /  9.0km/h 8.7mph /  14.0km/h 49% 0in /  0.0mm
13:33 59.2 °F /  15.1 °C 39.6 °F /  4.2 °C 30.3in /  1026.0hPa SSE 6.3mph /  10.1km/h 8.7mph /  14.0km/h 48% 0in /  0.0mm
13:38 59 °F /  15.0 °C 39.7 °F /  4.3 °C 30.3in /  1026.0hPa SE 4.9mph /  7.9km/h 7.6mph /  12.2km/h 49% 0in /  0.0mm
13:43 59.5 °F /  15.3 °C 40.3 °F /  4.6 °C 30.3in /  1026.0hPa SSE 6mph /  9.7km/h 6.3mph /  10.1km/h 49% 0in /  0.0mm
13:48 59.7 °F /  15.4 °C 40.5 °F /  4.7 °C 30.3in /  1026.0hPa SSE 3.4mph /  5.5km/h 6.3mph /  10.1km/h 49% 0in /  0.0mm
13:53 59.9 °F /  15.5 °C 40.1 °F /  4.5 °C 30.3in /  1026.0hPa SE 4mph /  6.4km/h 7.4mph /  11.9km/h 48% 0in /  0.0mm
13:58 59.9 °F /  15.5 °C 40.6 °F /  4.8 °C 30.3in /  1026.0hPa South 5.8mph /  9.3km/h 7.8mph /  12.6km/h 49% 0in /  0.0mm
14:03 59.9 °F /  15.5 °C 40.6 °F /  4.8 °C 30.3in /  1026.0hPa SSW 4.9mph /  7.9km/h 7.8mph /  12.6km/h 49% 0in /  0.0mm
14:08 59.9 °F /  15.5 °C 40.1 °F /  4.5 °C 30.3in /  1026.0hPa SE 3.8mph /  6.1km/h 6.3mph /  10.1km/h 48% 0in /  0.0mm
14:13 60.1 °F /  15.6 °C 40.8 °F /  4.9 °C 30.3in /  1026.0hPa SSW 1.6mph /  2.6km/h 6.3mph /  10.1km/h 49% 0in /  0.0mm
14:18 59.9 °F /  15.5 °C 40.6 °F /  4.8 °C 30.3in /  1026.0hPa SSE 5.8mph /  9.3km/h 7.2mph /  11.6km/h 49% 0in /  0.0mm
14:23 59.5 °F /  15.3 °C 40.3 °F /  4.6 °C 30.3in /  1024.9hPa SE 3.8mph /  6.1km/h 7.4mph /  11.9km/h 49% 0in /  0.0mm
14:28 59.7 °F /  15.4 °C 39.9 °F /  4.4 °C 30.3in /  1024.9hPa SSE 4.3mph /  6.9km/h 7.8mph /  12.6km/h 48% 0in /  0.0mm
14:33 60.1 °F /  15.6 °C 40.8 °F /  4.9 °C 30.3in /  1024.9hPa SSW 3.1mph /  5.0km/h 7.8mph /  12.6km/h 49% 0in /  0.0mm
14:38 60.4 °F /  15.8 °C 40.6 °F /  4.8 °C 30.3in /  1024.9hPa SSW 2.7mph /  4.3km/h 7.4mph /  11.9km/h 48% 0in /  0.0mm
14:43 61.2 °F /  16.2 °C 41.7 °F /  5.4 °C 30.3in /  1024.9hPa South 3.8mph /  6.1km/h 7.6mph /  12.2km/h 49% 0in /  0.0mm
14:48 61.2 °F /  16.2 °C 40.6 °F /  4.8 °C 30.3in /  1024.9hPa SSE 5.6mph /  9.0km/h 8.7mph /  14.0km/h 47% 0in /  0.0mm
14:53 61.2 °F /  16.2 °C 41.4 °F /  5.2 °C 30.3in /  1024.9hPa South 3.8mph /  6.1km/h 8.7mph /  14.0km/h 48% 0in /  0.0mm
14:58 61.3 °F /  16.3 °C 42.1 °F /  5.6 °C 30.3in /  1024.9hPa SSE 5.4mph /  8.7km/h 6.5mph /  10.5km/h 49% 0in /  0.0mm
15:03 61.3 °F /  16.3 °C 41.4 °F /  5.2 °C 30.3in /  1024.9hPa SSE 3.8mph /  6.1km/h 7.4mph /  11.9km/h 48% 0in /  0.0mm
15:08 61.5 °F /  16.4 °C 41.5 °F /  5.3 °C 30.3in /  1024.9hPa South 5.4mph /  8.7km/h 7.4mph /  11.9km/h 48% 0in /  0.0mm
15:13 61.2 °F /  16.2 °C 40.6 °F /  4.8 °C 30.3in /  1024.9hPa SSE 5.4mph /  8.7km/h 7.2mph /  11.6km/h 47% 0in /  0.0mm
15:18 60.8 °F /  16.0 °C 40.5 °F /  4.7 °C 30.3in /  1024.9hPa SSE 5.8mph /  9.3km/h 7.2mph /  11.6km/h 47% 0in /  0.0mm
15:23 60.8 °F /  16.0 °C 40.5 °F /  4.7 °C 30.2in /  1023.9hPa SSW 1.6mph /  2.6km/h 7.2mph /  11.6km/h 47% 0in /  0.0mm
15:28 61.5 °F /  16.4 °C 41.5 °F /  5.3 °C 30.2in /  1023.9hPa SSE 3.4mph /  5.5km/h 6.3mph /  10.1km/h 48% 0in /  0.0mm
15:33 61.5 °F /  16.4 °C 41.7 °F /  5.4 °C 30.2in /  1023.9hPa SE 5.4mph /  8.7km/h 5.8mph /  9.3km/h 48% 0in /  0.0mm
15:38 61.3 °F /  16.3 °C 41.4 °F /  5.2 °C 30.3in /  1024.9hPa SSE 5.4mph /  8.7km/h 6mph /  9.7km/h 48% 0in /  0.0mm
15:43 61.5 °F /  16.4 °C 41.5 °F /  5.3 °C 30.3in /  1024.9hPa SSW 5.6mph /  9.0km/h 6.7mph /  10.8km/h 48% 0in /  0.0mm
15:48 61.3 °F /  16.3 °C 41.4 °F /  5.2 °C 30.3in /  1024.9hPa South 2.9mph /  4.7km/h 6.7mph /  10.8km/h 48% 0in /  0.0mm
15:53 61.2 °F /  16.2 °C 41.4 °F /  5.2 °C 30.3in /  1024.9hPa SSW 3.8mph /  6.1km/h 8.7mph /  14.0km/h 48% 0in /  0.0mm
15:58 60.8 °F /  16.0 °C 40.8 °F /  4.9 °C 30.3in /  1024.9hPa South 6mph /  9.7km/h 8.7mph /  14.0km/h 48% 0in /  0.0mm
16:03 60.6 °F /  15.9 °C 40.8 °F /  4.9 °C 30.3in /  1024.9hPa South 0.9mph /  1.4km/h 8.1mph /  13.0km/h 48% 0in /  0.0mm
16:08 60.8 °F /  16.0 °C 40.8 °F /  4.9 °C 30.3in /  1024.9hPa SE 3.4mph /  5.5km/h 7.4mph /  11.9km/h 48% 0in /  0.0mm
16:13 60.8 °F /  16.0 °C 40.8 °F /  4.9 °C 30.3in /  1024.9hPa South 4mph /  6.4km/h 6mph /  9.7km/h 48% 0in /  0.0mm
16:18 60.8 °F /  16.0 °C 41.5 °F /  5.3 °C 30.3in /  1024.9hPa Calm   5.8mph /  9.3km/h 49% 0in /  0.0mm
16:23 60.3 °F /  15.7 °C 41 °F /  5.0 °C 30.3in /  1024.9hPa South 5.8mph /  9.3km/h 7.4mph /  11.9km/h 49% 0in /  0.0mm
16:28 59.9 °F /  15.5 °C 40.6 °F /  4.8 °C 30.3in /  1024.9hPa SSW 5.8mph /  9.3km/h 7.4mph /  11.9km/h 49% 0in /  0.0mm
16:33 59.9 °F /  15.5 °C 41.2 °F /  5.1 °C 30.3in /  1024.9hPa South 8.5mph /  13.7km/h 8.5mph /  13.7km/h 50% 0in /  0.0mm
16:38 59.4 °F /  15.2 °C 40.6 °F /  4.8 °C 30.3in /  1024.9hPa SSW 5.8mph /  9.3km/h 8.7mph /  14.0km/h 50% 0in /  0.0mm
16:43 59 °F /  15.0 °C 40.5 °F /  4.7 °C 30.3in /  1024.9hPa South 4.3mph /  6.9km/h 8.7mph /  14.0km/h 50% 0in /  0.0mm
16:48 58.8 °F /  14.9 °C 40.6 °F /  4.8 °C 30.3in /  1024.9hPa South 3.8mph /  6.1km/h 8.5mph /  13.7km/h 51% 0in /  0.0mm
16:53 58.8 °F /  14.9 °C 41.2 °F /  5.1 °C 30.3in /  1024.9hPa SSE 4.3mph /  6.9km/h 7.6mph /  12.2km/h 52% 0in /  0.0mm
16:58 58.6 °F /  14.8 °C 41.5 °F /  5.3 °C 30.3in /  1024.9hPa SSE 3.6mph /  5.8km/h 8.1mph /  13.0km/h 53% 0in /  0.0mm
17:03 58.6 °F /  14.8 °C 41.5 °F /  5.3 °C 30.3in /  1024.9hPa South 4.9mph /  7.9km/h 8.1mph /  13.0km/h 53% 0in /  0.0mm
17:08 58.5 °F /  14.7 °C 41.9 °F /  5.5 °C 30.2in /  1023.9hPa South 3.4mph /  5.5km/h 5.6mph /  9.0km/h 54% 0in /  0.0mm
17:13 58.3 °F /  14.6 °C 41.7 °F /  5.4 °C 30.2in /  1023.9hPa South 3.1mph /  5.0km/h 5.6mph /  9.0km/h 54% 0in /  0.0mm
17:18 58.1 °F /  14.5 °C 42.1 °F /  5.6 °C 30.2in /  1023.9hPa South 3.4mph /  5.5km/h 6.5mph /  10.5km/h 55% 0in /  0.0mm
17:23 57.9 °F /  14.4 °C 42.3 °F /  5.7 °C 30.2in /  1023.9hPa SSE 3.1mph /  5.0km/h 6.5mph /  10.5km/h 56% 0in /  0.0mm
17:28 57.7 °F /  14.3 °C 42.3 °F /  5.7 °C 30.2in /  1023.9hPa South 2.5mph /  4.0km/h 6.3mph /  10.1km/h 56% 0in /  0.0mm
17:33 57.4 °F /  14.1 °C 41.7 °F /  5.4 °C 30.2in /  1023.9hPa South 2mph /  3.2km/h 6.5mph /  10.5km/h 56% 0in /  0.0mm
17:38 57.2 °F /  14.0 °C 41.7 °F /  5.4 °C 30.2in /  1023.9hPa South 2.9mph /  4.7km/h 6.5mph /  10.5km/h 56% 0in /  0.0mm
17:43 57 °F /  13.9 °C 42.1 °F /  5.6 °C 30.2in /  1023.9hPa South 3.4mph /  5.5km/h 5.4mph /  8.7km/h 57% 0in /  0.0mm
17:48 56.8 °F /  13.8 °C 42.3 °F /  5.7 °C 30.2in /  1023.9hPa SSW 6.5mph /  10.5km/h 6.5mph /  10.5km/h 58% 0in /  0.0mm
17:53 56.7 °F /  13.7 °C 42.1 °F /  5.6 °C 30.2in /  1023.9hPa SSE 2.9mph /  4.7km/h 7.4mph /  11.9km/h 58% 0in /  0.0mm
17:58 56.3 °F /  13.5 °C 42.3 °F /  5.7 °C 30.2in /  1023.9hPa SSE 2.7mph /  4.3km/h 7.4mph /  11.9km/h 59% 0in /  0.0mm
18:03 55.8 °F /  13.2 °C 42.1 °F /  5.6 °C 30.2in /  1023.9hPa SSE 2.2mph /  3.5km/h 6mph /  9.7km/h 60% 0in /  0.0mm
18:08 55.6 °F /  13.1 °C 41.7 °F /  5.4 °C 30.2in /  1023.9hPa SSE 3.6mph /  5.8km/h 3.8mph /  6.1km/h 60% 0in /  0.0mm
18:13 55 °F /  12.8 °C 42.3 °F /  5.7 °C 30.2in /  1023.9hPa SSE 2.2mph /  3.5km/h 3.8mph /  6.1km/h 62% 0in /  0.0mm
18:18 54.7 °F /  12.6 °C 42.3 °F /  5.7 °C 30.2in /  1023.9hPa SSE 2.5mph /  4.0km/h 5.4mph /  8.7km/h 63% 0in /  0.0mm
18:23 54.1 °F /  12.3 °C 41.9 °F /  5.5 °C 30.2in /  1023.9hPa SE 2.7mph /  4.3km/h 5.4mph /  8.7km/h 63% 0in /  0.0mm
18:28 54 °F /  12.2 °C 42.1 °F /  5.6 °C 30.2in /  1023.9hPa SSE 2mph /  3.2km/h 4.9mph /  7.9km/h 64% 0in /  0.0mm
18:33 53.2 °F /  11.8 °C 41.5 °F /  5.3 °C 30.2in /  1023.9hPa Calm   3.6mph /  5.8km/h 64% 0in /  0.0mm
18:38 53.2 °F /  11.8 °C 41.7 °F /  5.4 °C 30.2in /  1023.9hPa Calm   3.6mph /  5.8km/h 65% 0in /  0.0mm
18:43 52.5 °F /  11.4 °C 41.5 °F /  5.3 °C 30.2in /  1023.9hPa Calm   3.8mph /  6.1km/h 66% 0in /  0.0mm
18:48 52.3 °F /  11.3 °C 41.4 °F /  5.2 °C 30.2in /  1023.9hPa SSE 3.6mph /  5.8km/h 4.3mph /  6.9km/h 66% 0in /  0.0mm
18:53 52 °F /  11.1 °C 40.8 °F /  4.9 °C 30.2in /  1023.9hPa SE 2.5mph /  4.0km/h 4.3mph /  6.9km/h 66% 0in /  0.0mm
18:58 51.6 °F /  10.9 °C 41 °F /  5.0 °C 30.2in /  1023.9hPa SSE 2.7mph /  4.3km/h 4mph /  6.4km/h 67% 0in /  0.0mm
19:03 51.4 °F /  10.8 °C 40.8 °F /  4.9 °C 30.2in /  1023.9hPa SSE 1.6mph /  2.6km/h 3.6mph /  5.8km/h 67% 0in /  0.0mm
19:08 51.1 °F /  10.6 °C 40.8 °F /  4.9 °C 30.3in /  1024.9hPa SSE 2.5mph /  4.0km/h 3.6mph /  5.8km/h 68% 0in /  0.0mm
19:13 50.9 °F /  10.5 °C 40.6 °F /  4.8 °C 30.3in /  1024.9hPa SSE 2mph /  3.2km/h 3.1mph /  5.0km/h 68% 0in /  0.0mm
19:18 50.5 °F /  10.3 °C 40.6 °F /  4.8 °C 30.3in /  1024.9hPa Calm   3.4mph /  5.5km/h 69% 0in /  0.0mm
19:23 50.4 °F /  10.2 °C 40.6 °F /  4.8 °C 30.2in /  1023.9hPa SE 1.1mph /  1.8km/h 3.4mph /  5.5km/h 69% 0in /  0.0mm
19:28 50.2 °F /  10.1 °C 40.5 °F /  4.7 °C 30.2in /  1023.9hPa SE 0.9mph /  1.4km/h 3.4mph /  5.5km/h 69% 0in /  0.0mm
19:33 49.8 °F /  9.9 °C 39.9 °F /  4.4 °C 30.2in /  1023.9hPa SE 2.7mph /  4.3km/h 3.4mph /  5.5km/h 69% 0in /  0.0mm
19:38 49.6 °F /  9.8 °C 40.3 °F /  4.6 °C 30.3in /  1024.9hPa Calm   3.4mph /  5.5km/h 70% 0in /  0.0mm
19:43 49.5 °F /  9.7 °C 40.5 °F /  4.7 °C 30.3in /  1024.9hPa Calm   3.1mph /  5.0km/h 71% 0in /  0.0mm
19:48 49.1 °F /  9.5 °C 40.1 °F /  4.5 °C 30.3in /  1024.9hPa Calm   1.3mph /  2.1km/h 71% 0in /  0.0mm
19:53 49.1 °F /  9.5 °C 40.1 °F /  4.5 °C 30.3in /  1024.9hPa Calm   3.6mph /  5.8km/h 71% 0in /  0.0mm
19:58 48.7 °F /  9.3 °C 39.7 °F /  4.3 °C 30.3in /  1024.9hPa SE 1.1mph /  1.8km/h 3.6mph /  5.8km/h 71% 0in /  0.0mm
20:03 48.6 °F /  9.2 °C 39.9 °F /  4.4 °C 30.3in /  1024.9hPa Calm   3.4mph /  5.5km/h 72% 0in /  0.0mm
20:08 48.6 °F /  9.2 °C 39.9 °F /  4.4 °C 30.3in /  1024.9hPa SE 2.7mph /  4.3km/h 2.9mph /  4.7km/h 72% 0in /  0.0mm
20:13 48.4 °F /  9.1 °C 40.1 °F /  4.5 °C 30.3in /  1024.9hPa SSE 2.7mph /  4.3km/h 3.4mph /  5.5km/h 73% 0in /  0.0mm
20:18 48.4 °F /  9.1 °C 40.1 °F /  4.5 °C 30.3in /  1024.9hPa SSE 1.6mph /  2.6km/h 3.4mph /  5.5km/h 73% 0in /  0.0mm
20:23 48.4 °F /  9.1 °C 40.1 °F /  4.5 °C 30.3in /  1024.9hPa SSE 2mph /  3.2km/h 3.6mph /  5.8km/h 73% 0in /  0.0mm
20:28 48.2 °F /  9.0 °C 39.9 °F /  4.4 °C 30.3in /  1024.9hPa SSE 2.2mph /  3.5km/h 3.6mph /  5.8km/h 73% 0in /  0.0mm
20:33 48 °F /  8.9 °C 39.7 °F /  4.3 °C 30.3in /  1024.9hPa SSE 1.6mph /  2.6km/h 3.4mph /  5.5km/h 73% 0in /  0.0mm
20:38 47.8 °F /  8.8 °C 39.6 °F /  4.2 °C 30.3in /  1024.9hPa Calm   2.9mph /  4.7km/h 73% 0in /  0.0mm
20:43 47.5 °F /  8.6 °C 39.6 °F /  4.2 °C 30.3in /  1024.9hPa Calm   2.7mph /  4.3km/h 74% 0in /  0.0mm
20:48 47.5 °F /  8.6 °C 39.6 °F /  4.2 °C 30.3in /  1024.9hPa Calm   2.5mph /  4.0km/h 74% 0in /  0.0mm
20:53 47.3 °F /  8.5 °C 39.7 °F /  4.3 °C 30.3in /  1024.9hPa SSE 1.6mph /  2.6km/h 2.5mph /  4.0km/h 75% 0in /  0.0mm
20:58 47.1 °F /  8.4 °C 39.6 °F /  4.2 °C 30.3in /  1024.9hPa Calm   2.5mph /  4.0km/h 75% 0in /  0.0mm
21:03 46.9 °F /  8.3 °C 39.6 °F /  4.2 °C 30.3in /  1024.9hPa Calm     75% 0in /  0.0mm
21:08 46.8 °F /  8.2 °C 39.6 °F /  4.2 °C 30.3in /  1024.9hPa Calm   1.1mph /  1.8km/h 76% 0in /  0.0mm
21:13 46.6 °F /  8.1 °C 39.6 °F /  4.2 °C 30.3in /  1024.9hPa Calm   2.5mph /  4.0km/h 76% 0in /  0.0mm
21:18 46.6 °F /  8.1 °C 39.4 °F /  4.1 °C 30.3in /  1024.9hPa Calm   2.5mph /  4.0km/h 76% 0in /  0.0mm
21:23 46.2 °F /  7.9 °C 39.6 °F /  4.2 °C 30.3in /  1024.9hPa SE 1.1mph /  1.8km/h 2.7mph /  4.3km/h 77% 0in /  0.0mm
21:28 45.9 °F /  7.7 °C 39 °F /  3.9 °C 30.3in /  1024.9hPa Calm   2.7mph /  4.3km/h 77% 0in /  0.0mm
21:33 45.9 °F /  7.7 °C 39.6 °F /  4.2 °C 30.3in /  1024.9hPa Calm   1.1mph /  1.8km/h 78% 0in /  0.0mm
21:38 45.9 °F /  7.7 °C 39.4 °F /  4.1 °C 30.3in /  1024.9hPa Calm   2.5mph /  4.0km/h 78% 0in /  0.0mm
21:43 45.3 °F /  7.4 °C 39.4 °F /  4.1 °C 30.3in /  1024.9hPa Calm   2.5mph /  4.0km/h 79% 0in /  0.0mm
21:48 45.1 °F /  7.3 °C 39 °F /  3.9 °C 30.3in /  1024.9hPa Calm   1.1mph /  1.8km/h 79% 0in /  0.0mm
21:53 45 °F /  7.2 °C 38.8 °F /  3.8 °C 30.2in /  1023.9hPa Calm     79% 0in /  0.0mm
21:58 44.4 °F /  6.9 °C 38.5 °F /  3.6 °C 30.2in /  1023.9hPa Calm     79% 0in /  0.0mm
22:03 44.2 °F /  6.8 °C 38.7 °F /  3.7 °C 30.2in /  1023.9hPa Calm     80% 0in /  0.0mm
22:08 44.1 °F /  6.7 °C 38.5 °F /  3.6 °C 30.2in /  1023.9hPa Calm     81% 0in /  0.0mm
22:13 44.1 °F /  6.7 °C 38.5 °F /  3.6 °C 30.2in /  1023.9hPa Calm     81% 0in /  0.0mm
22:18 43.9 °F /  6.6 °C 38.7 °F /  3.7 °C 30.2in /  1023.9hPa Calm     82% 0in /  0.0mm
22:23 43.9 °F /  6.6 °C 38.7 °F /  3.7 °C 30.2in /  1023.9hPa Calm   1.1mph /  1.8km/h 82% 0in /  0.0mm
22:28 43.9 °F /  6.6 °C 38.7 °F /  3.7 °C 30.2in /  1023.9hPa Calm   2.9mph /  4.7km/h 82% 0in /  0.0mm
22:33 43.9 °F /  6.6 °C 39 °F /  3.9 °C 30.2in /  1023.9hPa SSE 2.2mph /  3.5km/h 2.9mph /  4.7km/h 83% 0in /  0.0mm
22:38 43.9 °F /  6.6 °C 39 °F /  3.9 °C 30.2in /  1022.9hPa SSE 2.5mph /  4.0km/h 2.9mph /  4.7km/h 83% 0in /  0.0mm
22:43 44.1 °F /  6.7 °C 39.6 °F /  4.2 °C 30.2in /  1022.9hPa SE 2.2mph /  3.5km/h 3.1mph /  5.0km/h 84% 0in /  0.0mm
22:48 44.1 °F /  6.7 °C 39.6 °F /  4.2 °C 30.2in /  1022.9hPa Calm   3.1mph /  5.0km/h 84% 0in /  0.0mm
22:51 44.1 °F /  6.7 °C 39.6 °F /  4.2 °C 30.2in /  1022.9hPa Calm   3.1mph /  5.0km/h 84% 0in /  0.0mm
22:56 43.9 °F /  6.6 °C 39.4 °F /  4.1 °C 30.2in /  1022.9hPa SE 2mph /  3.2km/h 2.2mph /  3.5km/h 84% 0in /  0.0mm
23:01 44.1 °F /  6.7 °C 39.6 °F /  4.2 °C 30.2in /  1022.9hPa SSE 1.6mph /  2.6km/h 3.4mph /  5.5km/h 84% 0in /  0.0mm
23:06 44.1 °F /  6.7 °C 39.6 °F /  4.2 °C 30.2in /  1022.9hPa SSE 2mph /  3.2km/h 3.4mph /  5.5km/h 84% 0in /  0.0mm
23:11 44.1 °F /  6.7 °C 39.6 °F /  4.2 °C 30.2in /  1022.9hPa SSE 1.6mph /  2.6km/h 2.5mph /  4.0km/h 84% 0in /  0.0mm
23:16 43.9 °F /  6.6 °C 39.4 °F /  4.1 °C 30.2in /  1022.9hPa Calm   2.5mph /  4.0km/h 84% 0in /  0.0mm
23:21 43.9 °F /  6.6 °C 39.4 °F /  4.1 °C 30.2in /  1022.9hPa Calm   2.5mph /  4.0km/h 84% 0in /  0.0mm
23:26 43.9 °F /  6.6 °C 39.6 °F /  4.2 °C 30.2in /  1022.9hPa Calm   2.5mph /  4.0km/h 85% 0in /  0.0mm
23:31 43.5 °F /  6.4 °C 39.4 °F /  4.1 °C 30.2in /  1022.9hPa Calm     85% 0in /  0.0mm
23:36 43.5 °F /  6.4 °C 39 °F /  3.9 °C 30.2in /  1022.9hPa SSE 2mph /  3.2km/h 2.7mph /  4.3km/h 84% 0in /  0.0mm
23:41 43.3 °F /  6.3 °C 39 °F /  3.9 °C 30.2in /  1022.9hPa Calm   4.3mph /  6.9km/h 85% 0in /  0.0mm
23:46 43.5 °F /  6.4 °C 39.4 °F /  4.1 °C 30.2in /  1022.9hPa South 2.5mph /  4.0km/h 4.3mph /  6.9km/h 85% 0in /  0.0mm
23:51 43.5 °F /  6.4 °C 39.4 °F /  4.1 °C 30.2in /  1022.9hPa SSW 2mph /  3.2km/h 3.4mph /  5.5km/h 85% 0in /  0.0mm
23:56 43.5 °F /  6.4 °C 39.4 °F /  4.1 °C 30.2in /  1021.9hPa South 1.3mph /  2.1km/h 3.4mph /  5.5km/h 85% 0in /  0.0mm
Données Historique de Météo Turbie

Mise a jour : 26/05/2018 05:52:13
Généré par Cumulus 1.9.4 (1099)